Davis Monthan Air Force Base Tucson US
ICAO: KDMA
IATA: DMA
Category: Medium
Scheduled Services: No

Elevation: 2704 ft
TransAlt. 18000 ft.

Airport Communications:
TUCSON APP/DEP:119.4
COMD POST:38.13
ATIS:27.01
CLNC DEL:121.8
GND:121.8
PMSV METRO:23.98
PTD:37.22
TWR:118.85

KDMA Zoom In..

Runways:

(A) RW 12 length 13643 ft width 200 ft
---- / hdg 126

(B) RW 30 length 13643 ft width 200 ft
ILS 109.30 / hdg 306

Location; KDMA
Day. 27 / Time. 07.58 Zulu
* Altimeter: 30.02
* Temperature: 09° c. 48.2°f.
* Wind from: 130° Speed 05 kn.
Dewpoint: -06° c.
Visibility: 10 Statute Miles.
Clouds: Clear (automated report).

KDMA 270758Z 13005KT 10SM CLR 09/M06 A3002 RMK AO2A SLPNO ALSTG ESTMD RVRNO FZRANO $

Going to: --> -->


Wind From 130°
Speed 05 kn.

 
 
jpsmedia worldairports.se 2020   terms of use